Time;durP1;ratioP1;P1;durP2;ratioP2;P2;SDS_P1;SDS_P2;PMS_P1;PMS_P2;Temp;Humidity;BMP_temperature;BMP_pressure;BME280_temperature;BME280_humidity;BME280_pressure;Samples;Min_cycle;Max_cycle;Signal;HPM_P1;HPM_P2
2023/05/22 00:02:10;;;;;;;11.90;7.13;;;14.50;99.90;;;;;;5054959;28;20031;-80
2023/05/22 00:04:35;;;;;;;15.00;8.18;;;14.50;99.90;;;;;;5055167;28;20024;-80
2023/05/22 00:07:02;;;;;;;12.55;8.35;;;14.40;99.90;;;;;;5073313;28;20392;-80
2023/05/22 00:09:28;;;;;;;12.68;8.30;;;14.40;99.90;;;;;;5054661;28;20085;-79
2023/05/22 00:11:53;;;;;;;11.30;8.07;;;14.30;99.90;;;;;;5054439;28;20115;-80
2023/05/22 00:14:19;;;;;;;13.02;8.80;;;14.30;99.90;;;;;;5055188;28;20032;-80
2023/05/22 00:16:47;;;;;;;9.77;8.18;;;14.30;99.90;;;;;;5054875;28;20549;-80
2023/05/22 00:19:15;;;;;;;13.10;8.00;;;14.30;99.90;;;;;;5072802;28;20070;-80
2023/05/22 00:21:41;;;;;;;10.63;8.13;;;14.30;99.90;;;;;;5073086;28;20020;-80
2023/05/22 00:24:08;;;;;;;12.32;8.32;;;14.20;99.90;;;;;;5054645;28;20035;-79
2023/05/22 00:26:33;;;;;;;10.90;8.23;;;14.20;99.90;;;;;;5061021;28;20025;-79
2023/05/22 00:28:59;;;;;;;11.82;7.07;;;14.20;99.90;;;;;;5071906;28;20235;-79
2023/05/22 00:31:25;;;;;;;13.88;8.45;;;14.10;99.90;;;;;;5070518;28;20024;-79
2023/05/22 00:33:51;;;;;;;11.65;8.57;;;14.40;99.90;;;;;;5069159;28;20033;-80
2023/05/22 00:36:17;;;;;;;10.88;7.75;;;14.10;99.90;;;;;;5058250;28;20384;-79
2023/05/22 00:38:43;;;;;;;11.10;7.93;;;14.00;99.90;;;;;;5058437;28;20035;-80
2023/05/22 00:41:09;;;;;;;10.77;8.48;;;13.90;99.90;;;;;;5076529;28;20020;-79
2023/05/22 00:43:37;;;;;;;14.27;9.23;;;13.90;99.90;;;;;;5058660;28;20032;-80
2023/05/22 00:46:02;;;;;;;10.73;8.40;;;13.80;99.90;;;;;;5058116;28;20025;-80
2023/05/22 00:48:28;;;;;;;10.50;7.70;;;13.80;99.90;;;;;;5058197;28;20021;-80
2023/05/22 00:50:56;;;;;;;11.82;7.60;;;13.90;99.90;;;;;;5076317;28;20028;-80
2023/05/22 00:53:23;;;;;;;11.60;8.27;;;13.90;99.90;;;;;;5076143;28;20021;-79
2023/05/22 00:55:51;;;;;;;10.68;8.30;;;14.00;99.90;;;;;;5057956;28;20048;-79
2023/05/22 00:58:17;;;;;;;11.75;8.15;;;14.00;99.90;;;;;;5076088;28;20021;-80
2023/05/22 01:00:44;;;;;;;17.67;7.93;;;13.90;99.90;;;;;;5075706;28;20108;-80
2023/05/22 01:03:10;;;;;;;11.65;7.90;;;13.90;99.90;;;;;;5075905;28;20024;-80
2023/05/22 01:05:36;;;;;;;9.82;8.38;;;13.90;99.90;;;;;;5058136;28;20074;-80
2023/05/22 01:08:03;;;;;;;12.05;8.27;;;13.80;99.90;;;;;;5075733;28;20021;-80
2023/05/22 01:10:30;;;;;;;12.23;8.02;;;13.80;99.90;;;;;;5057728;28;20113;-81
2023/05/22 01:13:23;;;;;;;16.02;8.07;;;13.70;99.90;;;;;;5076468;28;20084;-80
2023/05/22 01:15:55;;;;;;;11.50;7.82;;;13.70;99.90;;;;;;5063879;28;20027;-79
2023/05/22 01:18:35;;;;;;;12.02;8.30;;;13.60;99.90;;;;;;5064148;28;20024;-80
2023/05/22 01:21:10;;;;;;;13.20;8.60;;;13.60;99.90;;;;;;5083272;28;20016;-80
2023/05/22 01:24:14;;;;;;;12.38;8.55;;;13.60;99.90;;;;;;5066070;28;20088;-80
2023/05/22 01:26:58;;;;;;;15.23;8.32;;;13.50;99.90;;;;;;5084364;28;20074;-80
2023/05/22 01:29:33;;;;;;;13.27;8.82;;;13.50;99.90;;;;;;5066326;28;20119;-80
2023/05/22 01:32:01;;;;;;;13.67;8.00;;;13.40;99.90;;;;;;5084222;28;20051;-80
2023/05/22 01:34:27;;;;;;;13.77;8.05;;;13.40;99.90;;;;;;5064797;28;20037;-80
2023/05/22 01:36:55;;;;;;;12.38;7.47;;;13.30;99.90;;;;;;5067117;28;20052;-80
2023/05/22 01:39:23;;;;;;;11.98;7.97;;;13.40;99.90;;;;;;5082264;28;20020;-80
2023/05/22 01:41:49;;;;;;;12.48;8.70;;;13.40;99.90;;;;;;5067263;28;20029;-80
2023/05/22 01:44:15;;;;;;;11.55;8.43;;;13.50;99.90;;;;;;5084458;28;20024;-80
2023/05/22 01:46:41;;;;;;;9.80;8.25;;;13.40;99.90;;;;;;5066958;28;20034;-80
2023/05/22 01:49:07;;;;;;;10.70;8.15;;;13.40;99.90;;;;;;5085620;28;20033;-80
2023/05/22 01:51:36;;;;;;;12.70;8.10;;;13.30;99.90;;;;;;5085604;28;20024;-80
2023/05/22 01:54:23;;;;;;;13.82;8.30;;;13.30;99.90;;;;;;5085715;28;20032;-80
2023/05/22 01:57:08;;;;;;;7.95;6.70;;;13.30;99.90;;;;;;5067549;28;20017;-80
2023/05/22 01:59:58;;;;;;;10.85;7.03;;;13.30;99.90;;;;;;5067605;28;20028;-80
2023/05/22 02:02:26;;;;;;;9.40;7.60;;;13.30;99.90;;;;;;5067058;28;20024;-80
2023/05/22 02:04:57;;;;;;;12.45;8.50;;;13.30;99.90;;;;;;5065697;28;20024;-80
2023/05/22 02:07:24;;;;;;;9.85;7.82;;;13.20;99.90;;;;;;5065058;28;20052;-80
2023/05/22 02:09:52;;;;;;;11.57;8.07;;;13.20;99.90;;;;;;5064242;28;20021;-80
2023/05/22 02:12:19;;;;;;;13.00;8.60;;;13.20;99.90;;;;;;5065047;28;20024;-80
2023/05/22 02:14:46;;;;;;;11.65;8.20;;;13.10;99.90;;;;;;5067215;28;20092;-80
2023/05/22 02:17:11;;;;;;;13.20;8.18;;;13.20;99.90;;;;;;5067626;28;20027;-80
2023/05/22 02:19:37;;;;;;;13.88;7.65;;;13.30;99.90;;;;;;5084235;28;20497;-79
2023/05/22 02:22:03;;;;;;;10.43;7.45;;;13.20;99.90;;;;;;5081451;28;20030;-79
2023/05/22 02:24:35;;;;;;;11.73;8.48;;;13.70;99.90;;;;;;5056218;28;20158;-79
2023/05/22 02:27:01;;;;;;;14.82;8.35;;;13.10;99.90;;;;;;5056544;28;20028;-80
2023/05/22 02:29:26;;;;;;;11.73;7.93;;;13.10;99.90;;;;;;5056068;28;20025;-78
2023/05/22 02:31:53;;;;;;;10.90;8.13;;;13.10;99.90;;;;;;5056277;28;20489;-80
2023/05/22 02:34:19;;;;;;;14.63;9.13;;;13.00;99.90;;;;;;5069276;28;20048;-80
2023/05/22 02:36:46;;;;;;;10.45;7.40;;;13.00;99.90;;;;;;5096035;28;20029;-80
2023/05/22 02:39:12;;;;;;;13.65;9.00;;;12.90;99.90;;;;;;5068055;28;20115;-80
2023/05/22 02:41:37;;;;;;;13.50;9.00;;;12.90;99.90;;;;;;5056708;28;20101;-80
2023/05/22 02:44:03;;;;;;;13.23;8.35;;;12.80;99.90;;;;;;5074048;28;20024;-79
2023/05/22 02:46:29;;;;;;;14.40;8.15;;;12.80;99.90;;;;;;5074065;28;20149;-80
2023/05/22 02:48:54;;;;;;;11.77;7.60;;;12.80;99.90;;;;;;5055750;28;20074;-79
2023/05/22 02:51:20;;;;;;;11.77;9.05;;;12.80;99.90;;;;;;5072905;28;20056;-79
2023/05/22 02:53:46;;;;;;;15.20;9.05;;;12.80;99.90;;;;;;5055441;28;20437;-79
2023/05/22 02:56:11;;;;;;;12.35;8.13;;;12.80;99.90;;;;;;5055790;28;20579;-79
2023/05/22 02:58:38;;;;;;;10.90;7.93;;;12.80;99.90;;;;;;5055539;28;20028;-79
2023/05/22 03:01:07;;;;;;;8.82;7.38;;;12.80;99.90;;;;;;5073857;28;20059;-79
2023/05/22 03:03:33;;;;;;;14.02;8.95;;;12.80;99.90;;;;;;5055336;28;20063;-79
2023/05/22 03:06:00;;;;;;;11.45;8.63;;;12.80;99.90;;;;;;5055514;28;20055;-79
2023/05/22 03:08:30;;;;;;;13.73;8.40;;;12.80;99.90;;;;;;5055299;28;20136;-79
2023/05/22 03:10:57;;;;;;;11.70;7.40;;;12.90;99.90;;;;;;5055330;28;20060;-79
2023/05/22 03:13:23;;;;;;;12.32;8.73;;;12.90;99.90;;;;;;5055260;28;20027;-80
2023/05/22 03:15:50;;;;;;;11.57;8.25;;;12.80;99.90;;;;;;5055515;28;20028;-79
2023/05/22 03:18:15;;;;;;;11.85;8.60;;;12.80;99.90;;;;;;5054981;28;20396;-79
2023/05/22 03:20:41;;;;;;;11.15;8.40;;;12.80;99.90;;;;;;5055126;28;20021;-79
2023/05/22 03:23:07;;;;;;;12.75;7.78;;;12.90;99.90;;;;;;5055286;28;20052;-80
2023/05/22 03:25:33;;;;;;;15.70;8.82;;;12.80;99.90;;;;;;5073085;28;20059;-79
2023/05/22 03:27:58;;;;;;;11.15;7.80;;;12.80;99.90;;;;;;5073208;28;20020;-79
2023/05/22 03:30:24;;;;;;;10.73;7.70;;;12.70;99.90;;;;;;5073101;28;20059;-79
2023/05/22 03:32:51;;;;;;;16.05;8.38;;;12.80;99.90;;;;;;5073138;28;20063;-79
2023/05/22 03:35:18;;;;;;;12.80;8.90;;;12.80;99.90;;;;;;5055082;28;20056;-79
2023/05/22 03:37:45;;;;;;;11.07;7.72;;;12.80;99.90;;;;;;5072872;28;20021;-79
2023/05/22 03:40:11;;;;;;;16.77;7.80;;;12.90;99.90;;;;;;5073020;28;20381;-79
2023/05/22 03:42:37;;;;;;;11.82;8.30;;;12.90;99.90;;;;;;5054926;28;20021;-79
2023/05/22 03:45:03;;;;;;;10.32;8.63;;;12.90;99.90;;;;;;5054679;28;20031;-79
2023/05/22 03:47:28;;;;;;;10.60;7.63;;;12.90;99.90;;;;;;5054981;28;20030;-79
2023/05/22 03:49:54;;;;;;;12.10;8.48;;;12.80;99.90;;;;;;5073000;28;20381;-79
2023/05/22 03:52:21;;;;;;;11.75;7.82;;;12.80;99.90;;;;;;5054986;28;20039;-80
2023/05/22 03:54:46;;;;;;;11.38;8.57;;;12.80;99.90;;;;;;5072871;28;20033;-79
2023/05/22 03:57:12;;;;;;;10.52;7.82;;;12.90;99.90;;;;;;5055054;28;20048;-79
2023/05/22 03:59:38;;;;;;;13.63;8.95;;;12.90;99.90;;;;;;5089428;22;20406;-76
2023/05/22 04:02:04;;;;;;;15.90;8.55;;;12.90;99.90;;;;;;5054701;28;20032;-76
2023/05/22 04:04:31;;;;;;;15.35;9.40;;;13.00;99.90;;;;;;5075459;28;20035;-75
2023/05/22 04:06:56;;;;;;;11.00;8.13;;;13.10;99.90;;;;;;5075617;28;20021;-75
2023/05/22 04:09:26;;;;;;;12.80;8.77;;;13.10;99.90;;;;;;5057225;28;20421;-76
2023/05/22 04:11:52;;;;;;;12.65;8.77;;;13.20;99.90;;;;;;5056952;28;20401;-76
2023/05/22 04:14:17;;;;;;;14.95;7.88;;;13.20;99.90;;;;;;5075185;28;20028;-75
2023/05/22 04:16:43;;;;;;;19.80;9.80;;;13.30;99.90;;;;;;5075139;28;20029;-76
2023/05/22 04:19:09;;;;;;;14.80;8.90;;;13.30;99.90;;;;;;5075002;28;20111;-75
2023/05/22 04:21:34;;;;;;;12.93;7.95;;;13.30;99.90;;;;;;5057419;28;20055;-76
2023/05/22 04:24:05;;;;;;;12.32;8.18;;;13.50;99.90;;;;;;5074883;28;20020;-76
2023/05/22 04:26:34;;;;;;;10.73;7.95;;;13.60;99.90;;;;;;5075062;28;20020;-76
2023/05/22 04:29:01;;;;;;;11.40;8.98;;;13.60;99.90;;;;;;5074803;28;20047;-76
2023/05/22 04:31:27;;;;;;;11.48;8.23;;;13.70;99.90;;;;;;5074911;28;20048;-76
2023/05/22 04:33:53;;;;;;;13.07;8.02;;;13.70;99.90;;;;;;5074879;28;20059;-76
2023/05/22 04:36:21;;;;;;;10.43;7.30;;;13.90;99.90;;;;;;5074938;28;20066;-75
2023/05/22 04:38:47;;;;;;;10.38;8.43;;;14.00;99.90;;;;;;5056828;28;20158;-75
2023/05/22 04:41:16;;;;;;;12.65;9.05;;;14.10;99.90;;;;;;5075091;28;20021;-75
2023/05/22 04:43:42;;;;;;;11.93;8.27;;;14.20;99.90;;;;;;5058092;28;20028;-74
2023/05/22 04:46:08;;;;;;;9.88;7.80;;;14.20;99.90;;;;;;5075174;28;20149;-75
2023/05/22 04:48:35;;;;;;;9.85;7.20;;;14.30;99.90;;;;;;5075063;28;20028;-74
2023/05/22 04:51:02;;;;;;;12.18;7.57;;;14.40;99.90;;;;;;5057240;28;20392;-75
2023/05/22 04:53:29;;;;;;;11.75;7.88;;;14.50;99.90;;;;;;5075044;28;20024;-75
2023/05/22 04:55:58;;;;;;;10.85;7.97;;;14.50;99.90;;;;;;5074849;28;20027;-75
2023/05/22 04:58:26;;;;;;;10.90;7.55;;;14.60;99.90;;;;;;5057022;28;20059;-75
2023/05/22 05:00:52;;;;;;;11.25;7.40;;;14.70;99.90;;;;;;5075382;28;20480;-75
2023/05/22 05:03:18;;;;;;;11.73;7.80;;;14.90;99.90;;;;;;5074721;28;20039;-76
2023/05/22 05:05:44;;;;;;;11.32;7.97;;;15.10;99.90;;;;;;5074248;28;20524;-76
2023/05/22 05:08:10;;;;;;;9.52;7.57;;;15.20;99.90;;;;;;5074131;28;20104;-76
2023/05/22 05:10:36;;;;;;;9.40;6.82;;;15.30;99.90;;;;;;5056098;28;20024;-76
2023/05/22 05:13:02;;;;;;;11.52;8.20;;;15.50;99.90;;;;;;5073848;28;20503;-76
2023/05/22 05:15:28;;;;;;;12.38;7.60;;;15.60;99.90;;;;;;5055617;28;20024;-76
2023/05/22 05:17:54;;;;;;;7.60;6.32;;;15.80;99.90;;;;;;5073944;28;20520;-76
2023/05/22 05:20:20;;;;;;;8.95;7.03;;;15.90;99.90;;;;;;5056258;28;20115;-76
2023/05/22 05:22:46;;;;;;;8.10;7.05;;;16.10;99.90;;;;;;5074006;28;20095;-76
2023/05/22 05:25:12;;;;;;;9.00;6.85;;;16.30;99.90;;;;;;5073764;28;20478;-76
2023/05/22 05:27:38;;;;;;;8.82;6.30;;;16.40;99.90;;;;;;5074190;28;20093;-76
2023/05/22 05:30:05;;;;;;;9.23;7.38;;;16.60;99.90;;;;;;5073938;28;20028;-76
2023/05/22 05:32:31;;;;;;;7.47;5.97;;;16.70;99.90;;;;;;5056054;28;20033;-76
2023/05/22 05:34:56;;;;;;;9.77;7.10;;;16.80;99.90;;;;;;5055823;28;20031;-76
2023/05/22 05:37:22;;;;;;;10.93;7.25;;;16.90;99.90;;;;;;5074022;28;20017;-76
2023/05/22 05:39:48;;;;;;;7.75;6.25;;;16.90;99.90;;;;;;5073830;28;20051;-76
2023/05/22 05:42:16;;;;;;;7.38;6.15;;;17.10;99.90;;;;;;5073983;28;20021;-76
2023/05/22 05:44:41;;;;;;;7.43;6.25;;;17.10;99.90;;;;;;5055962;28;20123;-74
2023/05/22 05:47:07;;;;;;;11.70;6.68;;;17.30;99.90;;;;;;5073627;28;20063;-75
2023/05/22 05:49:33;;;;;;;8.90;6.55;;;17.40;99.90;;;;;;5073500;28;20103;-76
2023/05/22 05:51:58;;;;;;;7.97;6.28;;;17.60;99.90;;;;;;5073428;28;20039;-76
2023/05/22 05:54:25;;;;;;;12.52;5.80;;;17.80;99.90;;;;;;5073374;28;20048;-76
2023/05/22 05:56:51;;;;;;;11.90;6.15;;;17.90;99.90;;;;;;5055644;28;20024;-76
2023/05/22 05:59:17;;;;;;;7.20;5.78;;;18.10;99.90;;;;;;5073875;28;20500;-76
2023/05/22 06:01:47;;;;;;;6.70;5.82;;;18.30;99.90;;;;;;5055979;28;20108;-76
2023/05/22 06:04:13;;;;;;;7.60;6.32;;;18.50;99.90;;;;;;5056044;28;20098;-76
2023/05/22 06:06:41;;;;;;;7.47;5.95;;;18.70;99.90;;;;;;5073644;28;20485;-76
2023/05/22 06:09:07;;;;;;;7.25;5.38;;;18.90;99.90;;;;;;5073742;28;20385;-76
2023/05/22 06:11:33;;;;;;;8.20;6.32;;;19.00;99.90;;;;;;5055152;28;20028;-76
2023/05/22 06:14:01;;;;;;;10.55;7.28;;;19.20;99.90;;;;;;5073094;28;20454;-76
2023/05/22 06:16:27;;;;;;;10.68;6.63;;;19.40;99.90;;;;;;5055111;28;20028;-76
2023/05/22 06:18:53;;;;;;;10.73;7.93;;;19.60;99.90;;;;;;5072962;28;20021;-76
2023/05/22 06:21:23;;;;;;;16.02;10.10;;;19.80;99.90;;;;;;5073060;28;20027;-76
2023/05/22 06:23:49;;;;;;;10.20;6.75;;;19.90;99.90;;;;;;5055091;28;20028;-76
2023/05/22 06:26:15;;;;;;;10.50;5.82;;;20.00;99.90;;;;;;5072759;28;20031;-76
2023/05/22 06:28:41;;;;;;;8.45;5.25;;;20.20;99.90;;;;;;5072863;28;20028;-76
2023/05/22 06:31:08;;;;;;;7.82;4.97;;;20.20;99.90;;;;;;5072740;28;20029;-76
2023/05/22 06:33:35;;;;;;;8.32;6.10;;;20.40;99.90;;;;;;5054797;28;20035;-76
2023/05/22 06:36:03;;;;;;;6.70;5.45;;;20.50;99.90;;;;;;5072975;28;20021;-76
2023/05/22 06:38:30;;;;;;;7.05;5.50;;;20.70;99.90;;;;;;5072645;28;20086;-76
2023/05/22 06:40:56;;;;;;;9.45;6.20;;;20.80;99.90;;;;;;5072749;28;20020;-76
2023/05/22 06:43:21;;;;;;;7.75;5.78;;;20.90;99.90;;;;;;5072895;28;20024;-76
2023/05/22 06:45:47;;;;;;;5.57;4.80;;;21.10;99.90;;;;;;5072603;28;20594;-76
2023/05/22 06:48:12;;;;;;;5.63;4.95;;;21.20;99.90;;;;;;5054697;28;20024;-76
2023/05/22 06:50:38;;;;;;;6.45;5.55;;;21.40;99.90;;;;;;5072453;28;20024;-77
2023/05/22 06:53:05;;;;;;;7.55;5.13;;;21.50;99.90;;;;;;5072449;28;20032;-76
2023/05/22 06:55:31;;;;;;;6.53;5.13;;;21.70;99.90;;;;;;5072417;28;20023;-76
2023/05/22 06:57:56;;;;;;;12.20;4.63;;;21.90;99.90;;;;;;5054550;28;20107;-76
2023/05/22 07:00:22;;;;;;;5.30;4.47;;;22.20;99.90;;;;;;5054508;28;20032;-75
2023/05/22 07:02:48;;;;;;;7.25;4.55;;;22.40;99.10;;;;;;5056516;28;20412;-78
2023/05/22 07:05:14;;;;;;;8.38;4.82;;;22.60;98.30;;;;;;5074310;28;20029;-77
2023/05/22 07:07:40;;;;;;;5.10;4.60;;;22.70;97.50;;;;;;5074719;28;20108;-77
2023/05/22 07:10:06;;;;;;;6.57;4.25;;;22.90;97.10;;;;;;5073386;28;20027;-77
2023/05/22 07:12:32;;;;;;;5.20;4.70;;;22.90;96.50;;;;;;5074032;28;20546;-78
2023/05/22 07:14:58;;;;;;;4.95;3.72;;;23.20;97.10;;;;;;5072345;28;20033;-75
2023/05/22 07:17:24;;;;;;;4.85;4.25;;;23.00;95.90;;;;;;5072031;28;20078;-76
2023/05/22 07:19:50;;;;;;;4.60;3.78;;;23.10;95.60;;;;;;5072042;28;20025;-76
2023/05/22 07:22:16;;;;;;;6.55;3.90;;;23.20;95.30;;;;;;5072129;28;20023;-76
2023/05/22 07:24:42;;;;;;;6.00;3.63;;;23.30;95.30;;;;;;5053808;28;20042;-77
2023/05/22 07:27:08;;;;;;;4.88;3.90;;;23.20;95.10;;;;;;5054260;28;20024;-75
2023/05/22 07:29:34;;;;;;;5.72;4.28;;;23.30;94.50;;;;;;5071864;28;20038;-76
2023/05/22 07:31:59;;;;;;;5.35;4.32;;;23.40;93.90;;;;;;5072479;28;20397;-77
2023/05/22 07:34:30;;;;;;;5.50;4.18;;;23.20;94.80;;;;;;5074573;28;20021;-76
2023/05/22 07:36:56;;;;;;;7.07;4.30;;;23.20;94.90;;;;;;5073994;28;20488;-78
2023/05/22 07:39:22;;;;;;;6.95;3.53;;;23.30;95.20;;;;;;5074218;28;20024;-75
2023/05/22 07:41:52;;;;;;;5.85;3.55;;;23.40;93.60;;;;;;5074585;28;20366;-77
2023/05/22 07:44:18;;;;;;;4.75;3.60;;;23.50;93.00;;;;;;5074544;28;20021;-77
2023/05/22 07:46:43;;;;;;;5.38;3.60;;;23.40;91.80;;;;;;5074404;28;20040;-77
2023/05/22 07:49:09;;;;;;;4.68;3.38;;;23.50;93.60;;;;;;5054356;28;20028;-76
2023/05/22 07:51:35;;;;;;;3.88;3.28;;;23.60;91.10;;;;;;5072017;28;20031;-78
2023/05/22 07:54:01;;;;;;;5.00;2.88;;;23.60;91.40;;;;;;5072582;28;20099;-77
2023/05/22 07:56:26;;;;;;;6.07;3.40;;;23.60;91.60;;;;;;5055012;28;20473;-76
2023/05/22 07:58:52;;;;;;;7.10;5.18;;;23.80;91.90;;;;;;5053761;28;20487;-77
2023/05/22 08:01:18;;;;;;;4.57;3.35;;;23.80;91.00;;;;;;5072658;28;20035;-74
2023/05/22 08:03:44;;;;;;;5.75;3.40;;;24.00;91.80;;;;;;5055854;28;20029;-76
2023/05/22 08:06:09;;;;;;;5.50;3.80;;;23.90;91.10;;;;;;5073123;28;20432;-76
2023/05/22 08:08:35;;;;;;;4.57;3.78;;;24.00;91.80;;;;;;5072540;28;20039;-77
2023/05/22 08:11:01;;;;;;;4.03;3.50;;;24.00;91.30;;;;;;5072259;28;20459;-76
2023/05/22 08:13:27;;;;;;;4.05;3.38;;;24.20;91.10;;;;;;5072462;28;20042;-76
2023/05/22 08:15:52;;;;;;;5.47;3.50;;;24.20;90.80;;;;;;5072653;28;20020;-75
2023/05/22 08:18:18;;;;;;;11.23;3.95;;;24.20;90.90;;;;;;5072453;28;20071;-76
2023/05/22 08:20:45;;;;;;;4.10;3.38;;;24.40;91.10;;;;;;5054381;28;20029;-76
2023/05/22 08:23:11;;;;;;;5.82;3.58;;;24.40;89.90;;;;;;5072936;28;20017;-76
2023/05/22 08:25:37;;;;;;;3.85;3.45;;;24.30;90.20;;;;;;5072442;28;20019;-75
2023/05/22 08:28:02;;;;;;;5.57;3.95;;;24.40;91.00;;;;;;5072468;28;20021;-76
2023/05/22 08:30:28;;;;;;;9.60;3.80;;;24.60;91.20;;;;;;5071450;28;20086;-76
2023/05/22 08:32:54;;;;;;;9.98;4.50;;;24.40;90.70;;;;;;5071604;28;20019;-77
2023/05/22 08:35:19;;;;;;;3.85;3.08;;;24.40;86.90;;;;;;5071608;28;20079;-76
2023/05/22 08:37:45;;;;;;;5.85;3.45;;;24.50;89.50;;;;;;5071845;28;20469;-77
2023/05/22 08:40:12;;;;;;;3.67;3.28;;;24.60;89.30;;;;;;5053780;28;20378;-77
2023/05/22 08:42:37;;;;;;;4.90;4.40;;;24.70;88.80;;;;;;5071684;28;20017;-76
2023/05/22 08:45:05;;;;;;;8.40;3.55;;;24.80;90.10;;;;;;5071245;28;20108;-75
2023/05/22 08:47:35;;;;;;;6.45;4.13;;;25.20;90.00;;;;;;5054361;28;20519;-75
2023/05/22 08:50:01;;;;;;;4.47;3.90;;;25.30;88.40;;;;;;5057347;28;20028;-76
2023/05/22 08:52:42;;;;;;;6.80;3.83;;;25.40;87.50;;;;;;5075430;28;20111;-77
2023/05/22 08:55:09;;;;;;;5.90;3.92;;;25.50;84.90;;;;;;5075594;28;20477;-76
2023/05/22 08:57:35;;;;;;;4.22;3.55;;;25.20;84.90;;;;;;5057164;28;20077;-76
2023/05/22 09:00:01;;;;;;;5.35;3.33;;;25.00;83.70;;;;;;5074910;28;20107;-76
2023/05/22 09:02:27;;;;;;;6.68;3.80;;;24.80;84.70;;;;;;5075889;28;20456;-76
2023/05/22 09:04:52;;;;;;;5.05;3.38;;;25.00;85.30;;;;;;5076111;28;20126;-76
2023/05/22 09:07:20;;;;;;;4.28;3.22;;;24.90;86.00;;;;;;5076313;28;20500;-76
2023/05/22 09:09:46;;;;;;;8.55;3.83;;;25.10;84.90;;;;;;5075822;28;20169;-76
2023/05/22 09:12:12;;;;;;;5.60;3.70;;;25.40;84.80;;;;;;5075199;28;20071;-75
2023/05/22 09:14:42;;;;;;;7.57;3.35;;;25.50;84.60;;;;;;5075744;28;20023;-76
2023/05/22 09:17:10;;;;;;;6.88;3.63;;;25.50;81.80;;;;;;5058224;28;20024;-77
2023/05/22 09:19:36;;;;;;;6.82;3.60;;;25.60;83.60;;;;;;5075165;28;20090;-76
2023/05/22 09:22:05;;;;;;;7.00;3.45;;;25.70;82.50;;;;;;5074239;28;20052;-76
2023/05/22 09:24:41;;;;;;;4.07;3.58;;;25.70;81.40;;;;;;5074155;28;20397;-75
2023/05/22 09:27:07;;;;;;;3.88;3.40;;;25.80;80.90;;;;;;5075257;28;20024;-74
2023/05/22 09:30:00;;;;;;;5.43;3.88;;;25.70;81.70;;;;;;5056653;28;20396;-76
2023/05/22 09:32:29;;;;;;;3.53;2.90;;;25.80;80.20;;;;;;5053048;28;20040;-76
2023/05/22 09:35:03;;;;;;;7.25;3.70;;;26.00;80.90;;;;;;5073885;28;20439;-76
2023/05/22 09:37:33;;;;;;;6.63;3.70;;;26.00;82.40;;;;;;5073921;28;20568;-76
2023/05/22 09:40:06;;;;;;;4.68;3.05;;;26.20;80.30;;;;;;5074311;28;20222;-77
2023/05/22 09:42:35;;;;;;;3.72;3.35;;;26.00;77.40;;;;;;5075586;28;20374;-76
2023/05/22 09:45:05;;;;;;;4.30;3.70;;;26.00;76.30;;;;;;5055941;28;20119;-76
2023/05/22 09:47:35;;;;;;;4.50;3.42;;;26.00;79.70;;;;;;5055590;28;20025;-75
2023/05/22 09:50:06;;;;;;;5.95;4.18;;;26.20;79.30;;;;;;5073651;28;20032;-75
2023/05/22 09:52:33;;;;;;;4.43;4.03;;;26.10;79.10;;;;;;5073565;28;20074;-75
2023/05/22 09:55:03;;;;;;;5.63;3.60;;;26.20;74.80;;;;;;5073290;28;20111;-77
2023/05/22 09:57:31;;;;;;;3.63;3.33;;;26.00;74.20;;;;;;5073488;28;20091;-77
2023/05/22 09:59:59;;;;;;;4.65;2.80;;;26.20;76.00;;;;;;5080599;23;20362;-80
2023/05/22 10:02:26;;;;;;;3.83;2.80;;;26.40;76.00;;;;;;5095179;28;20020;-80
2023/05/22 10:04:53;;;;;;;3.65;3.22;;;26.60;72.80;;;;;;5095843;28;20027;-79
2023/05/22 10:07:23;;;;;;;9.80;3.30;;;26.70;72.00;;;;;;5077249;28;20039;-80
2023/05/22 10:10:03;;;;;;;3.83;2.35;;;26.40;72.30;;;;;;5077364;28;20024;-79
2023/05/22 10:12:37;;;;;;;3.13;2.83;;;26.40;72.40;;;;;;5077351;28;20047;-79
2023/05/22 10:15:06;;;;;;;3.25;2.95;;;26.80;69.70;;;;;;5095698;28;20074;-79
2023/05/22 10:17:32;;;;;;;3.13;2.45;;;27.00;68.20;;;;;;5095714;28;20438;-79
2023/05/22 10:19:57;;;;;;;3.95;2.55;;;27.30;65.30;;;;;;5077266;28;20052;-79
2023/05/22 10:22:26;;;;;;;4.70;2.90;;;27.30;66.90;;;;;;5077687;28;20530;-79
2023/05/22 10:24:53;;;;;;;3.00;2.67;;;27.20;66.20;;;;;;5077172;28;20115;-80
2023/05/22 10:27:18;;;;;;;3.38;2.85;;;27.50;66.60;;;;;;5095210;28;20020;-78
2023/05/22 10:29:52;;;;;;;3.30;2.97;;;27.10;68.50;;;;;;5095281;28;20078;-80
2023/05/22 10:32:33;;;;;;;4.55;2.55;;;27.10;67.30;;;;;;5077098;28;20391;-80
2023/05/22 10:35:10;;;;;;;4.18;3.00;;;27.40;66.90;;;;;;5076656;28;20028;-79
2023/05/22 10:37:42;;;;;;;3.35;2.42;;;27.50;66.70;;;;;;5077057;28;20103;-80
2023/05/22 10:40:14;;;;;;;2.83;2.63;;;27.40;66.20;;;;;;5095170;28;20408;-79
2023/05/22 10:42:42;;;;;;;5.53;2.90;;;27.60;64.00;;;;;;5095156;28;20031;-79
2023/05/22 10:45:09;;;;;;;2.70;2.20;;;28.00;62.20;;;;;;5076938;28;20157;-79
2023/05/22 10:47:35;;;;;;;3.97;2.88;;;28.10;60.80;;;;;;5095022;28;20055;-80
2023/05/22 10:50:09;;;;;;;5.35;2.63;;;28.00;62.10;;;;;;5095068;28;20051;-78
2023/05/22 10:52:36;;;;;;;3.03;2.63;;;27.80;62.90;;;;;;5076606;28;20052;-77
2023/05/22 10:55:09;;;;;;;2.97;2.40;;;27.70;62.40;;;;;;5076786;28;20039;-80
2023/05/22 10:57:38;;;;;;;3.03;2.17;;;28.10;64.20;;;;;;5076746;28;20377;-80
2023/05/22 11:00:08;;;;;;;3.80;2.53;;;28.20;61.80;;;;;;5094265;28;20488;-79
2023/05/22 11:02:38;;;;;;;3.33;3.03;;;28.40;59.90;;;;;;5076649;28;20395;-79
2023/05/22 11:05:24;;;;;;;4.63;2.50;;;28.60;62.00;;;;;;5082099;28;20043;-78
2023/05/22 11:07:49;;;;;;;2.90;2.40;;;28.50;60.60;;;;;;5111772;28;20040;-77
2023/05/22 11:10:26;;;;;;;5.13;2.85;;;28.20;59.10;;;;;;5090004;28;20023;-80
2023/05/22 11:13:10;;;;;;;3.72;2.03;;;27.90;57.20;;;;;;5094535;28;20032;-80
2023/05/22 11:15:42;;;;;;;3.67;2.75;;;28.10;55.60;;;;;;5094395;28;20028;-79
2023/05/22 11:18:08;;;;;;;4.25;2.30;;;27.90;54.70;;;;;;5095065;28;20092;-79
2023/05/22 11:20:38;;;;;;;5.13;2.45;;;28.00;58.20;;;;;;5095213;28;20383;-80
2023/05/22 11:23:08;;;;;;;3.03;2.55;;;27.80;56.50;;;;;;5076082;28;20023;-79
2023/05/22 11:25:36;;;;;;;3.15;2.35;;;27.60;59.70;;;;;;5094097;28;20073;-78
2023/05/22 11:28:03;;;;;;;4.65;2.28;;;27.90;57.40;;;;;;5093786;28;20028;-80
2023/05/22 11:30:29;;;;;;;3.75;2.47;;;28.00;55.10;;;;;;5075200;28;20044;-79
2023/05/22 11:32:57;;;;;;;2.20;2.00;;;28.10;56.80;;;;;;5093628;28;20038;-80
2023/05/22 11:35:23;;;;;;;3.08;2.28;;;28.10;56.40;;;;;;5075545;28;20028;-79
2023/05/22 11:37:51;;;;;;;2.90;1.98;;;28.00;56.60;;;;;;5093731;28;20070;-78
2023/05/22 11:40:28;;;;;;;4.32;2.20;;;28.00;57.60;;;;;;5075515;28;20106;-79
2023/05/22 11:42:54;;;;;;;2.88;2.47;;;28.00;57.10;;;;;;5075746;28;20434;-79
2023/05/22 11:45:20;;;;;;;2.45;2.17;;;28.00;57.70;;;;;;5093392;28;20431;-79
2023/05/22 11:47:47;;;;;;;2.78;1.67;;;28.20;54.40;;;;;;5093044;28;20028;-79
2023/05/22 11:50:13;;;;;;;2.92;2.45;;;28.50;54.40;;;;;;5093601;28;20035;-79
2023/05/22 11:52:41;;;;;;;2.75;2.10;;;28.60;53.40;;;;;;5093677;28;20024;-78
2023/05/22 11:55:08;;;;;;;2.20;2.00;;;28.60;53.50;;;;;;5075311;28;20166;-79
2023/05/22 11:57:34;;;;;;;5.05;2.33;;;28.40;54.20;;;;;;5075543;28;20028;-79
2023/05/22 12:00:05;;;;;;;4.80;2.15;;;28.60;56.90;;;;;;5075032;28;20025;-79
2023/05/22 12:02:31;;;;;;;3.03;2.05;;;28.90;55.50;;;;;;5093285;28;20027;-78
2023/05/22 12:04:57;;;;;;;2.25;2.00;;;29.10;55.60;;;;;;5093205;28;20024;-79
2023/05/22 12:07:26;;;;;;;4.30;2.60;;;29.10;54.40;;;;;;5074600;28;20025;-79
2023/05/22 12:09:54;;;;;;;5.20;2.65;;;29.10;53.90;;;;;;5074831;28;20058;-78
2023/05/22 12:12:20;;;;;;;3.13;2.40;;;29.00;53.50;;;;;;5074549;28;20085;-79
2023/05/22 12:14:47;;;;;;;7.22;2.50;;;28.90;52.60;;;;;;5074644;28;20031;-78
2023/05/22 12:17:13;;;;;;;3.97;2.30;;;28.80;52.60;;;;;;5093411;28;20430;-79
2023/05/22 12:19:40;;;;;;;3.28;2.10;;;28.80;56.50;;;;;;5075154;28;20476;-79
2023/05/22 12:22:07;;;;;;;2.58;2.38;;;28.90;53.60;;;;;;5075090;28;20024;-79
2023/05/22 12:24:39;;;;;;;3.70;2.22;;;29.00;55.20;;;;;;5096328;28;20024;-80
2023/05/22 12:27:09;;;;;;;2.45;2.25;;;28.90;53.30;;;;;;5078743;28;20446;-79
2023/05/22 12:29:35;;;;;;;3.40;2.42;;;29.30;53.60;;;;;;5096775;28;20039;-79
2023/05/22 12:32:09;;;;;;;3.78;2.42;;;29.20;54.30;;;;;;5097716;28;20035;-79
2023/05/22 12:34:45;;;;;;;2.28;2.05;;;29.00;54.00;;;;;;5078621;28;20051;-79
2023/05/22 12:37:21;;;;;;;4.30;2.25;;;28.90;52.50;;;;;;5096805;28;20034;-79
2023/05/22 12:39:54;;;;;;;2.55;2.00;;;28.70;53.40;;;;;;5097103;28;20047;-80
2023/05/22 12:42:20;;;;;;;2.80;2.20;;;28.30;53.90;;;;;;5078761;28;20032;-79
2023/05/22 12:44:45;;;;;;;4.68;2.00;;;28.20;54.40;;;;;;5096267;28;20036;-80
2023/05/22 12:47:11;;;;;;;4.05;2.10;;;28.10;54.40;;;;;;5078860;28;20035;-78